sensor_id;sensor_type;location;lat;lon;timestamp;pressure;altitude;pressure_sealevel;temperature;humidity
11444;BME280;5778;47.856;12.154;2022-09-09T00:00:13;96162.13;;;15.12;100.00
11444;BME280;5778;47.856;12.154;2022-09-09T00:02:44;96154.91;;;15.08;100.00
11444;BME280;5778;47.856;12.154;2022-09-09T00:05:18;96145.50;;;15.10;100.00
11444;BME280;5778;47.856;12.154;2022-09-09T00:07:53;96145.22;;;15.12;100.00
11444;BME280;5778;47.856;12.154;2022-09-09T00:10:28;96152.75;;;15.10;100.00
11444;BME280;5778;47.856;12.154;2022-09-09T00:13:01;96154.63;;;15.09;100.00
11444;BME280;5778;47.856;12.154;2022-09-09T00:15:51;96155.81;;;14.98;100.00
11444;BME280;5778;47.856;12.154;2022-09-09T00:18:24;96158.78;;;14.97;100.00
11444;BME280;5778;47.856;12.154;2022-09-09T00:21:00;96148.59;;;14.99;100.00
11444;BME280;5778;47.856;12.154;2022-09-09T00:23:32;96142.16;;;15.00;100.00
11444;BME280;5778;47.856;12.154;2022-09-09T00:26:26;96145.28;;;15.07;100.00
11444;BME280;5778;47.856;12.154;2022-09-09T00:29:03;96145.34;;;15.02;100.00
11444;BME280;5778;47.856;12.154;2022-09-09T00:31:32;96149.38;;;14.99;100.00
11444;BME280;5778;47.856;12.154;2022-09-09T00:34:03;96151.44;;;15.07;100.00
11444;BME280;5778;47.856;12.154;2022-09-09T00:36:59;96154.34;;;15.11;100.00
11444;BME280;5778;47.856;12.154;2022-09-09T00:39:31;96154.91;;;15.08;100.00
11444;BME280;5778;47.856;12.154;2022-09-09T00:42:13;96161.34;;;15.07;100.00
11444;BME280;5778;47.856;12.154;2022-09-09T00:44:51;96163.75;;;15.08;100.00
11444;BME280;5778;47.856;12.154;2022-09-09T00:53:31;96146.22;;;15.21;100.00
11444;BME280;5778;47.856;12.154;2022-09-09T00:56:20;96139.13;;;15.30;100.00
11444;BME280;5778;47.856;12.154;2022-09-09T00:58:57;96138.59;;;15.33;100.00
11444;BME280;5778;47.856;12.154;2022-09-09T01:01:27;96143.97;;;15.28;100.00
11444;BME280;5778;47.856;12.154;2022-09-09T01:03:55;96161.66;;;15.29;100.00
11444;BME280;5778;47.856;12.154;2022-09-09T01:06:50;96163.78;;;15.32;100.00
11444;BME280;5778;47.856;12.154;2022-09-09T01:09:25;96155.41;;;15.38;100.00
11444;BME280;5778;47.856;12.154;2022-09-09T01:11:59;96154.28;;;15.44;100.00
11444;BME280;5778;47.856;12.154;2022-09-09T01:14:39;96157.25;;;15.43;100.00
11444;BME280;5778;47.856;12.154;2022-09-09T01:17:13;96154.78;;;15.46;100.00
11444;BME280;5778;47.856;12.154;2022-09-09T01:20:02;96158.28;;;15.47;100.00
11444;BME280;5778;47.856;12.154;2022-09-09T01:22:40;96153.91;;;15.51;100.00
11444;BME280;5778;47.856;12.154;2022-09-09T01:25:20;96157.13;;;15.53;100.00
11444;BME280;5778;47.856;12.154;2022-09-09T01:28:02;96153.97;;;15.46;100.00
11444;BME280;5778;47.856;12.154;2022-09-09T01:30:33;96159.34;;;15.46;100.00
11444;BME280;5778;47.856;12.154;2022-09-09T01:33:01;96165.28;;;15.43;100.00
11444;BME280;5778;47.856;12.154;2022-09-09T01:35:48;96173.31;;;15.43;100.00
11444;BME280;5778;47.856;12.154;2022-09-09T01:38:21;96175.72;;;15.44;100.00
11444;BME280;5778;47.856;12.154;2022-09-09T01:40:51;96177.66;;;15.39;100.00
11444;BME280;5778;47.856;12.154;2022-09-09T01:43:26;96184.03;;;15.43;100.00
11444;BME280;5778;47.856;12.154;2022-09-09T01:49:11;96182.00;;;15.30;100.00
11444;BME280;5778;47.856;12.154;2022-09-09T01:51:40;96186.63;;;15.24;100.00
11444;BME280;5778;47.856;12.154;2022-09-09T01:54:12;96190.94;;;15.20;100.00
11444;BME280;5778;47.856;12.154;2022-09-09T01:56:54;96193.41;;;15.17;100.00
11444;BME280;5778;47.856;12.154;2022-09-09T01:59:53;96186.81;;;15.04;100.00
11444;BME280;5778;47.856;12.154;2022-09-09T02:02:27;96183.19;;;14.95;100.00
11444;BME280;5778;47.856;12.154;2022-09-09T02:05:16;96185.56;;;14.97;100.00
11444;BME280;5778;47.856;12.154;2022-09-09T02:07:48;96184.50;;;14.98;100.00
11444;BME280;5778;47.856;12.154;2022-09-09T02:10:30;96184.78;;;14.96;100.00
11444;BME280;5778;47.856;12.154;2022-09-09T02:13:12;96187.94;;;14.98;100.00
11444;BME280;5778;47.856;12.154;2022-09-09T02:15:46;96189.00;;;15.02;100.00
11444;BME280;5778;47.856;12.154;2022-09-09T02:18:18;96186.88;;;14.99;100.00
11444;BME280;5778;47.856;12.154;2022-09-09T02:24:07;96187.09;;;15.03;100.00
11444;BME280;5778;47.856;12.154;2022-09-09T02:26:42;96177.25;;;14.98;100.00
11444;BME280;5778;47.856;12.154;2022-09-09T02:29:17;96188.00;;;14.93;100.00
11444;BME280;5778;47.856;12.154;2022-09-09T02:31:47;96190.72;;;14.88;100.00
11444;BME280;5778;47.856;12.154;2022-09-09T02:34:23;96176.00;;;14.86;100.00
11444;BME280;5778;47.856;12.154;2022-09-09T02:36:53;96175.75;;;14.87;100.00
11444;BME280;5778;47.856;12.154;2022-09-09T02:39:21;96179.78;;;14.85;100.00
11444;BME280;5778;47.856;12.154;2022-09-09T02:41:49;96177.97;;;14.80;100.00
11444;BME280;5778;47.856;12.154;2022-09-09T02:44:18;96177.69;;;14.82;100.00
11444;BME280;5778;47.856;12.154;2022-09-09T02:47:14;96177.91;;;14.85;100.00
11444;BME280;5778;47.856;12.154;2022-09-09T02:49:52;96181.09;;;14.87;100.00
11444;BME280;5778;47.856;12.154;2022-09-09T02:52:27;96181.09;;;14.87;100.00
11444;BME280;5778;47.856;12.154;2022-09-09T02:55:04;96181.09;;;14.87;100.00
11444;BME280;5778;47.856;12.154;2022-09-09T02:57:39;96183.72;;;14.92;100.00
11444;BME280;5778;47.856;12.154;2022-09-09T03:00:09;96182.91;;;14.92;100.00
11444;BME280;5778;47.856;12.154;2022-09-09T03:02:38;96173.88;;;14.88;100.00
11444;BME280;5778;47.856;12.154;2022-09-09T03:05:07;96175.97;;;14.91;100.00
11444;BME280;5778;47.856;12.154;2022-09-09T03:07:34;96171.44;;;14.91;100.00
11444;BME280;5778;47.856;12.154;2022-09-09T03:10:01;96167.38;;;14.94;100.00
11444;BME280;5778;47.856;12.154;2022-09-09T03:12:28;96157.72;;;14.98;100.00
11444;BME280;5778;47.856;12.154;2022-09-09T03:14:55;96156.63;;;14.99;100.00
11444;BME280;5778;47.856;12.154;2022-09-09T03:17:23;96153.97;;;14.99;100.00
11444;BME280;5778;47.856;12.154;2022-09-09T03:19:54;96151.28;;;14.99;100.00
11444;BME280;5778;47.856;12.154;2022-09-09T03:22:24;96153.38;;;15.02;100.00
11444;BME280;5778;47.856;12.154;2022-09-09T03:24:53;96142.88;;;15.05;100.00
11444;BME280;5778;47.856;12.154;2022-09-09T03:27:25;96141.53;;;15.08;100.00
11444;BME280;5778;47.856;12.154;2022-09-09T03:29:52;96136.69;;;15.10;100.00
11444;BME280;5778;47.856;12.154;2022-09-09T03:32:23;96137.84;;;15.04;100.00
11444;BME280;5778;47.856;12.154;2022-09-09T03:34:52;96126.81;;;15.05;100.00
11444;BME280;5778;47.856;12.154;2022-09-09T03:37:20;96130.34;;;15.01;100.00
11444;BME280;5778;47.856;12.154;2022-09-09T03:39:49;96128.50;;;15.01;100.00
11444;BME280;5778;47.856;12.154;2022-09-09T03:42:17;96120.97;;;15.03;100.00
11444;BME280;5778;47.856;12.154;2022-09-09T03:44:49;96122.09;;;14.97;100.00
11444;BME280;5778;47.856;12.154;2022-09-09T03:50:51;96120.84;;;14.90;100.00
11444;BME280;5778;47.856;12.154;2022-09-09T03:53:22;96116.53;;;14.94;100.00
11444;BME280;5778;47.856;12.154;2022-09-09T03:55:51;96110.28;;;14.98;100.00
11444;BME280;5778;47.856;12.154;2022-09-09T03:58:21;96107.84;;;15.02;100.00
11444;BME280;5778;47.856;12.154;2022-09-09T04:00:54;96107.91;;;14.97;100.00
11444;BME280;5778;47.856;12.154;2022-09-09T04:03:22;96109.56;;;14.93;100.00
11444;BME280;5778;47.856;12.154;2022-09-09T04:06:01;96112.34;;;14.83;100.00
11444;BME280;5778;47.856;12.154;2022-09-09T04:08:31;96113.94;;;14.84;100.00
11444;BME280;5778;47.856;12.154;2022-09-09T04:10:59;96107.22;;;14.86;100.00
11444;BME280;5778;47.856;12.154;2022-09-09T04:13:27;96120.34;;;14.88;100.00
11444;BME280;5778;47.856;12.154;2022-09-09T04:16:14;96121.66;;;14.90;100.00
11444;BME280;5778;47.856;12.154;2022-09-09T04:18:43;96116.56;;;14.89;100.00
11444;BME280;5778;47.856;12.154;2022-09-09T04:21:10;96120.56;;;14.91;100.00
11444;BME280;5778;47.856;12.154;2022-09-09T04:23:39;96116.53;;;14.94;100.00
11444;BME280;5778;47.856;12.154;2022-09-09T04:29:27;96111.16;;;14.94;100.00
11444;BME280;5778;47.856;12.154;2022-09-09T04:31:54;96103.63;;;14.96;100.00
11444;BME280;5778;47.856;12.154;2022-09-09T04:34:21;96101.50;;;14.98;100.00
11444;BME280;5778;47.856;12.154;2022-09-09T04:37:00;96112.75;;;14.95;100.00
11444;BME280;5778;47.856;12.154;2022-09-09T04:39:29;96104.22;;;14.93;100.00
11444;BME280;5778;47.856;12.154;2022-09-09T04:41:59;96117.44;;;14.84;100.00
11444;BME280;5778;47.856;12.154;2022-09-09T04:44:27;96110.41;;;14.88;100.00
11444;BME280;5778;47.856;12.154;2022-09-09T04:47:04;96112.53;;;14.91;100.00
11444;BME280;5778;47.856;12.154;2022-09-09T04:49:42;96099.88;;;14.97;100.00
11444;BME280;5778;47.856;12.154;2022-09-09T04:52:10;96102.84;;;14.95;100.00
11444;BME280;5778;47.856;12.154;2022-09-09T04:54:39;96102.00;;;15.00;100.00
11444;BME280;5778;47.856;12.154;2022-09-09T04:57:11;96106.75;;;15.03;100.00
11444;BME280;5778;47.856;12.154;2022-09-09T04:59:38;96102.22;;;15.03;100.00
11444;BME280;5778;47.856;12.154;2022-09-09T05:02:06;96099.53;;;15.03;100.00
11444;BME280;5778;47.856;12.154;2022-09-09T05:04:34;96102.50;;;15.02;100.00
11444;BME280;5778;47.856;12.154;2022-09-09T05:07:33;96093.38;;;15.03;100.00
11444;BME280;5778;47.856;12.154;2022-09-09T05:10:01;96094.41;;;15.07;100.00
11444;BME280;5778;47.856;12.154;2022-09-09T05:12:31;96095.22;;;15.07;100.00
11444;BME280;5778;47.856;12.154;2022-09-09T05:14:59;96099.19;;;15.10;100.00
11444;BME280;5778;47.856;12.154;2022-09-09T05:17:33;96104.56;;;15.10;100.00
11444;BME280;5778;47.856;12.154;2022-09-09T05:20:06;96101.81;;;15.15;100.00
11444;BME280;5778;47.856;12.154;2022-09-09T05:22:34;96100.75;;;15.16;100.00
11444;BME280;5778;47.856;12.154;2022-09-09T05:25:04;96106.31;;;15.19;100.00
11444;BME280;5778;47.856;12.154;2022-09-09T05:27:55;96110.31;;;15.22;100.00
11444;BME280;5778;47.856;12.154;2022-09-09T05:30:22;96108.44;;;15.22;100.00
11444;BME280;5778;47.856;12.154;2022-09-09T05:32:52;96109.22;;;15.23;100.00
11444;BME280;5778;47.856;12.154;2022-09-09T05:35:18;96119.47;;;15.16;100.00
11444;BME280;5778;47.856;12.154;2022-09-09T05:37:46;96123.03;;;15.11;100.00
11444;BME280;5778;47.856;12.154;2022-09-09T05:40:15;96122.66;;;15.18;100.00
11444;BME280;5778;47.856;12.154;2022-09-09T05:42:42;96123.94;;;15.25;100.00
11444;BME280;5778;47.856;12.154;2022-09-09T05:45:09;96127.34;;;15.36;100.00
11444;BME280;5778;47.856;12.154;2022-09-09T05:47:38;96129.31;;;15.49;100.00
11444;BME280;5778;47.856;12.154;2022-09-09T05:50:08;96138.44;;;15.48;100.00
11444;BME280;5778;47.856;12.154;2022-09-09T05:52:36;96132.41;;;15.56;100.00
11444;BME280;5778;47.856;12.154;2022-09-09T05:55:06;96136.69;;;15.57;100.00
11444;BME280;5778;47.856;12.154;2022-09-09T05:57:41;96148.09;;;15.67;100.00
11444;BME280;5778;47.856;12.154;2022-09-09T06:00:09;96152.03;;;15.75;100.00
11444;BME280;5778;47.856;12.154;2022-09-09T06:02:40;96145.50;;;15.81;100.00
11444;BME280;5778;47.856;12.154;2022-09-09T06:05:09;96143.31;;;15.83;100.00
11444;BME280;5778;47.856;12.154;2022-09-09T06:08:00;96146.50;;;15.85;100.00
11444;BME280;5778;47.856;12.154;2022-09-09T06:10:27;96140.63;;;15.83;100.00
11444;BME280;5778;47.856;12.154;2022-09-09T06:12:55;96139.13;;;15.77;100.00
11444;BME280;5778;47.856;12.154;2022-09-09T06:15:31;96143.38;;;15.78;100.00
11444;BME280;5778;47.856;12.154;2022-09-09T06:17:58;96140.72;;;15.78;100.00
11444;BME280;5778;47.856;12.154;2022-09-09T06:20:35;96141.25;;;15.80;100.00
11444;BME280;5778;47.856;12.154;2022-09-09T06:23:03;96140.63;;;15.83;100.00
11444;BME280;5778;47.856;12.154;2022-09-09T06:25:38;96140.38;;;15.84;100.00
11444;BME280;5778;47.856;12.154;2022-09-09T06:28:08;96145.72;;;15.84;100.00
11444;BME280;5778;47.856;12.154;2022-09-09T06:30:35;96144.84;;;15.89;100.00
11444;BME280;5778;47.856;12.154;2022-09-09T06:33:02;96140.56;;;15.88;100.00
11444;BME280;5778;47.856;12.154;2022-09-09T06:35:52;96140.56;;;15.88;100.00
11444;BME280;5778;47.856;12.154;2022-09-09T06:38:21;96137.91;;;15.88;100.00
11444;BME280;5778;47.856;12.154;2022-09-09T06:40:51;96143.25;;;15.88;100.00
11444;BME280;5778;47.856;12.154;2022-09-09T06:43:20;96148.88;;;15.68;100.00
11444;BME280;5778;47.856;12.154;2022-09-09T06:45:55;96147.28;;;15.67;100.00
11444;BME280;5778;47.856;12.154;2022-09-09T06:48:22;96144.16;;;15.60;100.00
11444;BME280;5778;47.856;12.154;2022-09-09T06:51:11;96150.16;;;15.52;100.00
11444;BME280;5778;47.856;12.154;2022-09-09T06:53:41;96163.81;;;15.55;100.00
11444;BME280;5778;47.856;12.154;2022-09-09T06:56:39;96159.81;;;15.53;100.00
11444;BME280;5778;47.856;12.154;2022-09-09T06:59:13;96148.28;;;15.52;100.00
11444;BME280;5778;47.856;12.154;2022-09-09T07:01:41;96152.28;;;15.55;100.00
11444;BME280;5778;47.856;12.154;2022-09-09T07:04:13;96149.66;;;15.50;100.00
11444;BME280;5778;47.856;12.154;2022-09-09T07:06:44;96145.53;;;15.57;100.00
11444;BME280;5778;47.856;12.154;2022-09-09T07:09:16;96145.69;;;15.66;100.00
11444;BME280;5778;47.856;12.154;2022-09-09T07:11:48;96155.63;;;15.84;100.00
11444;BME280;5778;47.856;12.154;2022-09-09T07:14:20;96151.97;;;15.80;100.00
11444;BME280;5778;47.856;12.154;2022-09-09T07:17:18;96144.50;;;15.95;100.00
11444;BME280;5778;47.856;12.154;2022-09-09T07:19:55;96144.22;;;16.15;100.00
11444;BME280;5778;47.856;12.154;2022-09-09T07:22:23;96139.28;;;16.22;100.00
11444;BME280;5778;47.856;12.154;2022-09-09T07:24:51;96150.06;;;16.36;100.00
11444;BME280;5778;47.856;12.154;2022-09-09T07:27:18;96150.81;;;16.41;100.00
11444;BME280;5778;47.856;12.154;2022-09-09T07:29:49;96146.94;;;16.47;100.00
11444;BME280;5778;47.856;12.154;2022-09-09T07:32:17;96151.38;;;16.57;100.00
11444;BME280;5778;47.856;12.154;2022-09-09T07:34:45;96147.16;;;16.69;100.00
11444;BME280;5778;47.856;12.154;2022-09-09T07:37:36;96155.53;;;16.81;100.00
11444;BME280;5778;47.856;12.154;2022-09-09T07:40:04;96153.03;;;16.85;100.00
11444;BME280;5778;47.856;12.154;2022-09-09T07:42:31;96160.00;;;16.86;100.00
11444;BME280;5778;47.856;12.154;2022-09-09T07:45:00;96165.81;;;16.74;100.00
11444;BME280;5778;47.856;12.154;2022-09-09T07:47:33;96178.19;;;16.75;100.00
11444;BME280;5778;47.856;12.154;2022-09-09T07:53:23;96179.00;;;16.57;100.00
11444;BME280;5778;47.856;12.154;2022-09-09T07:59:03;96182.06;;;16.51;100.00
11444;BME280;5778;47.856;12.154;2022-09-09T08:01:36;96189.75;;;16.57;100.00
11444;BME280;5778;47.856;12.154;2022-09-09T08:04:07;96190.19;;;16.64;100.00
11444;BME280;5778;47.856;12.154;2022-09-09T08:06:40;96184.41;;;16.71;100.00
11444;BME280;5778;47.856;12.154;2022-09-09T08:09:09;96179.72;;;16.63;100.00
11444;BME280;5778;47.856;12.154;2022-09-09T08:11:39;96182.38;;;16.49;100.00
11444;BME280;5778;47.856;12.154;2022-09-09T08:14:07;96177.06;;;16.44;100.00
11444;BME280;5778;47.856;12.154;2022-09-09T08:16:40;96185.69;;;16.41;100.00
11444;BME280;5778;47.856;12.154;2022-09-09T08:19:12;96188.72;;;16.35;100.00
11444;BME280;5778;47.856;12.154;2022-09-09T08:21:43;96194.72;;;16.27;100.00
11444;BME280;5778;47.856;12.154;2022-09-09T08:24:11;96193.00;;;16.36;100.00
11444;BME280;5778;47.856;12.154;2022-09-09T08:26:47;96205.34;;;16.37;100.00
11444;BME280;5778;47.856;12.154;2022-09-09T08:29:17;96208.09;;;16.50;100.00
11444;BME280;5778;47.856;12.154;2022-09-09T08:31:49;96210.66;;;16.60;100.00
11444;BME280;5778;47.856;12.154;2022-09-09T08:34:17;96205.22;;;16.47;100.00
11444;BME280;5778;47.856;12.154;2022-09-09T08:36:55;96206.25;;;16.51;100.00
11444;BME280;5778;47.856;12.154;2022-09-09T08:39:29;96217.41;;;16.58;100.00
11444;BME280;5778;47.856;12.154;2022-09-09T08:42:19;96229.31;;;16.52;100.00
11444;BME280;5778;47.856;12.154;2022-09-09T08:45:09;96230.56;;;16.36;100.00
11444;BME280;5778;47.856;12.154;2022-09-09T08:47:53;96238.34;;;16.37;100.00
11444;BME280;5778;47.856;12.154;2022-09-09T08:50:35;96250.66;;;16.20;100.00
11444;BME280;5778;47.856;12.154;2022-09-09T08:53:16;96260.69;;;16.09;100.00
11444;BME280;5778;47.856;12.154;2022-09-09T08:55:50;96251.69;;;16.24;100.00
11444;BME280;5778;47.856;12.154;2022-09-09T08:58:25;96251.22;;;16.17;100.00
11444;BME280;5778;47.856;12.154;2022-09-09T09:01:20;96251.16;;;16.22;100.00
11444;BME280;5778;47.856;12.154;2022-09-09T09:04:00;96253.72;;;16.32;100.00
11444;BME280;5778;47.856;12.154;2022-09-09T09:06:46;96252.50;;;16.43;100.00
11444;BME280;5778;47.856;12.154;2022-09-09T09:09:21;96254.69;;;16.41;100.00
11444;BME280;5778;47.856;12.154;2022-09-09T09:11:54;96255.41;;;16.46;100.00
11444;BME280;5778;47.856;12.154;2022-09-09T09:14:29;96258.41;;;16.45;100.00
11444;BME280;5778;47.856;12.154;2022-09-09T09:17:18;96260.50;;;16.48;100.00
11444;BME280;5778;47.856;12.154;2022-09-09T09:23:20;96264.38;;;16.37;100.00
11444;BME280;5778;47.856;12.154;2022-09-09T09:26:23;96259.00;;;16.37;100.00
11444;BME280;5778;47.856;12.154;2022-09-09T09:28:54;96259.53;;;16.39;100.00
11444;BME280;5778;47.856;12.154;2022-09-09T09:31:23;96261.19;;;16.35;100.00
11444;BME280;5778;47.856;12.154;2022-09-09T09:33:54;96254.88;;;16.26;100.00
11444;BME280;5778;47.856;12.154;2022-09-09T09:36:33;96262.09;;;16.25;100.00
11444;BME280;5778;47.856;12.154;2022-09-09T09:39:04;96262.09;;;16.25;100.00
11444;BME280;5778;47.856;12.154;2022-09-09T09:41:35;96274.22;;;16.23;100.00
11444;BME280;5778;47.856;12.154;2022-09-09T09:44:04;96279.50;;;16.28;100.00
11444;BME280;5778;47.856;12.154;2022-09-09T09:46:42;96275.66;;;16.34;100.00
11444;BME280;5778;47.856;12.154;2022-09-09T09:49:50;96273.66;;;16.26;100.00
11444;BME280;5778;47.856;12.154;2022-09-09T09:52:20;96275.84;;;16.24;100.00
11444;BME280;5778;47.856;12.154;2022-09-09T09:54:52;96278.94;;;16.31;100.00
11444;BME280;5778;47.856;12.154;2022-09-09T09:57:38;96279.41;;;16.14;100.00
11444;BME280;5778;47.856;12.154;2022-09-09T10:00:14;96281.31;;;16.14;100.00
11444;BME280;5778;47.856;12.154;2022-09-09T10:02:46;96283.66;;;16.20;100.00
11444;BME280;5778;47.856;12.154;2022-09-09T10:05:20;96272.75;;;16.12;100.00
11444;BME280;5778;47.856;12.154;2022-09-09T10:08:01;96286.09;;;16.17;100.00
11444;BME280;5778;47.856;12.154;2022-09-09T10:10:37;96287.88;;;16.26;100.00
11444;BME280;5778;47.856;12.154;2022-09-09T10:13:12;96284.88;;;16.28;100.00
11444;BME280;5778;47.856;12.154;2022-09-09T10:15:48;96281.94;;;16.06;100.00
11444;BME280;5778;47.856;12.154;2022-09-09T10:18:38;96277.44;;;16.01;100.00
11444;BME280;5778;47.856;12.154;2022-09-09T10:21:17;96284.41;;;16.02;100.00
11444;BME280;5778;47.856;12.154;2022-09-09T10:24:00;96276.06;;;16.04;100.00
11444;BME280;5778;47.856;12.154;2022-09-09T10:26:51;96284.06;;;16.09;100.00
11444;BME280;5778;47.856;12.154;2022-09-09T10:29:46;96294.28;;;16.07;100.00
11444;BME280;5778;47.856;12.154;2022-09-09T10:32:33;96296.22;;;16.01;100.00
11444;BME280;5778;47.856;12.154;2022-09-09T10:35:09;96289.66;;;16.12;100.00
11444;BME280;5778;47.856;12.154;2022-09-09T10:38:01;96302.06;;;16.27;100.00
11444;BME280;5778;47.856;12.154;2022-09-09T10:40:33;96306.59;;;16.31;100.00
11444;BME280;5778;47.856;12.154;2022-09-09T10:43:17;96309.50;;;16.35;100.00
11444;BME280;5778;47.856;12.154;2022-09-09T10:45:59;96316.03;;;16.29;100.00
11444;BME280;5778;47.856;12.154;2022-09-09T10:48:40;96303.97;;;16.26;100.00
11444;BME280;5778;47.856;12.154;2022-09-09T10:51:24;96299.44;;;16.22;100.00
11444;BME280;5778;47.856;12.154;2022-09-09T10:54:13;96295.44;;;16.43;100.00
11444;BME280;5778;47.856;12.154;2022-09-09T10:56:52;96307.66;;;16.54;100.00
11444;BME280;5778;47.856;12.154;2022-09-09T10:59:26;96305.63;;;16.46;100.00
11444;BME280;5778;47.856;12.154;2022-09-09T11:01:58;96296.28;;;16.62;100.00
11444;BME280;5778;47.856;12.154;2022-09-09T11:04:31;96291.97;;;16.61;100.00
11444;BME280;5778;47.856;12.154;2022-09-09T11:07:25;96279.13;;;16.76;100.00
11444;BME280;5778;47.856;12.154;2022-09-09T11:09:59;96288.13;;;16.85;100.00
11444;BME280;5778;47.856;12.154;2022-09-09T11:12:27;96293.94;;;16.74;100.00
11444;BME280;5778;47.856;12.154;2022-09-09T11:14:59;96289.34;;;16.74;100.00
11444;BME280;5778;47.856;12.154;2022-09-09T11:20:44;96289.94;;;16.90;100.00
11444;BME280;5778;47.856;12.154;2022-09-09T11:23:17;96293.13;;;16.92;100.00
11444;BME280;5778;47.856;12.154;2022-09-09T11:25:55;96295.44;;;16.98;100.00
11444;BME280;5778;47.856;12.154;2022-09-09T11:28:32;96290.47;;;17.24;100.00
11444;BME280;5778;47.856;12.154;2022-09-09T11:31:16;96283.16;;;17.11;100.00
11444;BME280;5778;47.856;12.154;2022-09-09T11:34:08;96283.75;;;17.08;100.00
11444;BME280;5778;47.856;12.154;2022-09-09T11:36:59;96280.44;;;17.29;100.00
11444;BME280;5778;47.856;12.154;2022-09-09T11:39:53;96280.81;;;17.23;100.00
11444;BME280;5778;47.856;12.154;2022-09-09T11:42:24;96285.13;;;17.69;100.00
11444;BME280;5778;47.856;12.154;2022-09-09T11:44:52;96290.38;;;17.61;100.00
11444;BME280;5778;47.856;12.154;2022-09-09T11:47:26;96286.72;;;17.84;100.00
11444;BME280;5778;47.856;12.154;2022-09-09T11:50:10;96296.00;;;18.18;100.00
11444;BME280;5778;47.856;12.154;2022-09-09T11:52:39;96288.81;;;17.87;100.00
11444;BME280;5778;47.856;12.154;2022-09-09T11:55:09;96288.00;;;17.86;100.00
11444;BME280;5778;47.856;12.154;2022-09-09T11:57:38;96277.59;;;17.53;100.00
11444;BME280;5778;47.856;12.154;2022-09-09T12:00:06;96276.94;;;17.29;100.00
11444;BME280;5778;47.856;12.154;2022-09-09T12:02:48;96280.50;;;17.43;100.00
11444;BME280;5778;47.856;12.154;2022-09-09T12:05:16;96273.44;;;17.60;100.00
11444;BME280;5778;47.856;12.154;2022-09-09T12:07:51;96278.44;;;17.67;100.00
11444;BME280;5778;47.856;12.154;2022-09-09T12:10:23;96273.97;;;17.76;100.00
11444;BME280;5778;47.856;12.154;2022-09-09T12:12:53;96278.06;;;18.14;100.00
11444;BME280;5778;47.856;12.154;2022-09-09T12:15:26;96287.41;;;18.16;100.00
11444;BME280;5778;47.856;12.154;2022-09-09T12:17:57;96282.53;;;17.91;100.00
11444;BME280;5778;47.856;12.154;2022-09-09T12:21:00;96283.59;;;17.50;100.00
11444;BME280;5778;47.856;12.154;2022-09-09T12:23:36;96294.09;;;17.78;100.00
11444;BME280;5778;47.856;12.154;2022-09-09T12:26:29;96287.78;;;17.56;100.00
11444;BME280;5778;47.856;12.154;2022-09-09T12:29:04;96285.72;;;17.80;100.00
11444;BME280;5778;47.856;12.154;2022-09-09T12:31:41;96280.66;;;17.78;100.00
11444;BME280;5778;47.856;12.154;2022-09-09T12:34:15;96279.91;;;17.46;100.00
11444;BME280;5778;47.856;12.154;2022-09-09T12:37:12;96279.66;;;18.01;100.00
11444;BME280;5778;47.856;12.154;2022-09-09T12:39:45;96278.34;;;17.72;100.00
11444;BME280;5778;47.856;12.154;2022-09-09T12:42:19;96285.31;;;17.73;100.00
11444;BME280;5778;47.856;12.154;2022-09-09T12:44:57;96284.09;;;17.33;100.00
11444;BME280;5778;47.856;12.154;2022-09-09T12:51:18;96298.91;;;17.49;100.00
11444;BME280;5778;47.856;12.154;2022-09-09T12:53:46;96288.97;;;17.50;100.00
11444;BME280;5778;47.856;12.154;2022-09-09T12:56:20;96282.06;;;17.12;100.00
11444;BME280;5778;47.856;12.154;2022-09-09T12:58:50;96283.56;;;17.18;100.00
11444;BME280;5778;47.856;12.154;2022-09-09T13:01:23;96281.38;;;17.20;100.00
11444;BME280;5778;47.856;12.154;2022-09-09T13:03:51;96280.78;;;16.91;100.00
11444;BME280;5778;47.856;12.154;2022-09-09T13:09:39;96274.34;;;17.69;100.00
11444;BME280;5778;47.856;12.154;2022-09-09T13:12:12;96277.53;;;17.85;100.00
11444;BME280;5778;47.856;12.154;2022-09-09T13:14:43;96275.75;;;17.35;100.00
11444;BME280;5778;47.856;12.154;2022-09-09T13:17:24;96279.53;;;17.34;100.00
11444;BME280;5778;47.856;12.154;2022-09-09T13:20:05;96277.81;;;17.56;100.00
11444;BME280;5778;47.856;12.154;2022-09-09T13:22:35;96272.06;;;17.63;100.00
11444;BME280;5778;47.856;12.154;2022-09-09T13:25:06;96262.88;;;17.64;100.00
11444;BME280;5778;47.856;12.154;2022-09-09T13:27:35;96273.06;;;17.80;100.00
11444;BME280;5778;47.856;12.154;2022-09-09T13:30:20;96262.09;;;17.50;100.00
11444;BME280;5778;47.856;12.154;2022-09-09T13:33:03;96265.78;;;17.54;100.00
11444;BME280;5778;47.856;12.154;2022-09-09T13:36:01;96265.88;;;17.49;100.00
11444;BME280;5778;47.856;12.154;2022-09-09T13:38:32;96254.84;;;17.32;100.00
11444;BME280;5778;47.856;12.154;2022-09-09T13:41:03;96256.66;;;17.36;100.00
11444;BME280;5778;47.856;12.154;2022-09-09T13:43:34;96253.53;;;17.75;100.00
11444;BME280;5778;47.856;12.154;2022-09-09T13:46:05;96253.41;;;18.07;100.00
11444;BME280;5778;47.856;12.154;2022-09-09T13:48:33;96243.19;;;17.68;100.00
11444;BME280;5778;47.856;12.154;2022-09-09T13:51:02;96239.78;;;17.76;100.00
11444;BME280;5778;47.856;12.154;2022-09-09T13:53:30;96235.31;;;17.72;100.00
11444;BME280;5778;47.856;12.154;2022-09-09T13:59:21;96215.09;;;17.74;100.00
11444;BME280;5778;47.856;12.154;2022-09-09T14:01:49;96201.75;;;17.83;100.00
11444;BME280;5778;47.856;12.154;2022-09-09T14:04:18;96206.13;;;17.65;100.00
11444;BME280;5778;47.856;12.154;2022-09-09T14:07:19;96204.81;;;17.63;100.00
11444;BME280;5778;47.856;12.154;2022-09-09T14:09:46;96204.81;;;17.90;100.00
11444;BME280;5778;47.856;12.154;2022-09-09T14:12:15;96197.38;;;17.73;100.00